Paracín / Davidovac Airport

LYPN · Serbie centrale, Serbia

METAR anciennes LYPN · Paracín / Davidovac Airport

Tu vois ci-dessous les METAR des derniers jours. Sélectionne une année pour parcourir les METAR plus anciens, à partir de l'année 2007.

25 juin 2024

Temps Code Temps Temp. Vue Base cloud Vent METAR/SPECI
16:00
V
32 °C 10 km+ - 340° 340° 4 kt METAR LYNI 251400Z 34004KT 290V030 9999 FEW040 32/20 Q1014 NOSIG
15:30
V
32 °C 10 km+ - 320° 320° 3 kt METAR LYNI 251330Z 32003KT 260V060 9999 FEW040 32/20 Q1014 NOSIG
15:00
V
33 °C 10 km+ - Var Var 1 kt METAR LYNI 251300Z VRB01KT 9999 FEW040 33/20 Q1014 NOSIG
14:30
V
32 °C 10 km+ - 300° 300° 5 kt METAR LYNI 251230Z 30005KT 240V330 CAVOK 32/20 Q1014 NOSIG
14:00
V
32 °C 10 km+ - Var Var 2 kt METAR LYNI 251200Z VRB02KT CAVOK 32/20 Q1014 NOSIG
13:30
V
32 °C 10 km+ - Var Var 3 kt METAR LYNI 251130Z VRB03KT CAVOK 32/20 Q1014 NOSIG
13:00
V
32 °C 10 km+ - Var Var 1 kt METAR LYNI 251100Z VRB01KT CAVOK 32/20 Q1014 NOSIG
12:30
V
31 °C 10 km+ - 360° 360° 0 kt METAR LYNI 251030Z 00000KT CAVOK 31/20 Q1015 NOSIG
12:00
V
30 °C 10 km+ - Var Var 2 kt METAR LYNI 251000Z VRB02KT CAVOK 30/21 Q1015 NOSIG
11:30
V
29 °C 10 km+ - Var Var 1 kt METAR LYNI 250930Z VRB01KT CAVOK 29/21 Q1015 NOSIG
11:00
V
27 °C 10 km+ - Var Var 1 kt METAR LYNI 250900Z VRB01KT CAVOK 27/20 Q1015 NOSIG
10:30
V
26 °C 10 km+ - Var Var 2 kt METAR LYNI 250830Z VRB02KT CAVOK 26/21 Q1016 NOSIG
10:00
V
26 °C 10 km+ - Var Var 2 kt METAR LYNI 250800Z VRB02KT CAVOK 26/20 Q1016 NOSIG
09:30
V
25 °C 10 km+ - Var Var 1 kt METAR LYNI 250730Z VRB01KT CAVOK 25/20 Q1016 NOSIG
09:00
V
24 °C 10 km+ - Var Var 1 kt METAR LYNI 250700Z VRB01KT CAVOK 24/20 Q1016 NOSIG
08:30
V
23 °C 10 km+ - Var Var 2 kt METAR LYNI 250630Z VRB02KT 9999 FEW023 23/19 Q1016 NOSIG
08:00
V
22 °C 10 km+ - Var Var 1 kt METAR LYNI 250600Z VRB01KT 9999 FEW013 22/20 Q1016 NOSIG
07:30
V
21 °C 10 km+ - 360° 360° 0 kt METAR LYNI 250530Z 00000KT 9999 FEW006 SCT013 21/20 Q1016 NOSIG

24 juin 2024

Temps Code Temps Temp. Vue Base cloud Vent METAR/SPECI
23:00
V
21 °C 10 km+ - Var Var 1 kt METAR LYNI 242100Z VRB01KT 9999 -TSRA FEW033CB SCT040 21/19 Q1016 BECMG NSW NSC
22:30
V
21 °C 10 km+ 3.700 ft 320° 320° 2 kt METAR LYNI 242030Z 32002KT 9999 -TSRA SCT033CB BKN037 21/19 Q1016 TEMPO 3000 TSRA
22:00
V
22 °C 10 km+ 3.700 ft 170° 170° 6 kt METAR LYNI 242000Z 17006KT 130V220 9999 -TSRA SCT033CB BKN037 22/18 Q1016 TEMPO 19025KT 3000 TSRA
21:30
V
27 °C 10 km+ - 200° 200° 10 - 26 kt METAR LYNI 241930Z 20010G26KT 9999 TS FEW035CB SCT040 27/16 Q1014 TEMPO 3000 TSRA SCT035CB BKN040
21:00
V
28 °C 10 km+ - 300° 300° 3 kt METAR LYNI 241900Z 30003KT 260V020 9999 FEW037TCU SCT040 28/14 Q1012 TEMPO 25025KT 3000 TSRA SCT035CB BKN040
20:30
V
27 °C 10 km+ - 330° 330° 4 kt METAR LYNI 241830Z 33004KT 320V030 9999 FEW037TCU SCT040 27/15 Q1012 NOSIG
20:00
V
27 °C 10 km+ - 300° 300° 6 kt METAR LYNI 241800Z 30006KT 250V330 9999 FEW037TCU SCT040 27/16 Q1012 NOSIG
19:30
V
29 °C 10 km+ - 320° 320° 5 kt METAR LYNI 241730Z 32005KT 9999 FEW040 29/14 Q1011 NOSIG
19:00
V
30 °C 10 km+ - 350° 350° 6 kt METAR LYNI 241700Z 35006KT 320V020 9999 FEW040 30/14 Q1011 NOSIG
18:30
V
31 °C 10 km+ - 350° 350° 6 kt METAR LYNI 241630Z 35006KT 320V020 CAVOK 31/14 Q1011 NOSIG
18:00
V
32 °C 10 km+ - 360° 360° 7 kt METAR LYNI 241600Z 36007KT 320V020 CAVOK 32/15 Q1011 NOSIG
17:30
V
32 °C 10 km+ - 360° 360° 6 kt METAR LYNI 241530Z 36006KT 330V030 CAVOK 32/15 Q1010 NOSIG
17:00
V
33 °C 10 km+ - 010° 010° 6 kt METAR LYNI 241500Z 01006KT 330V040 CAVOK 33/15 Q1011 NOSIG
16:30
V
33 °C 10 km+ - 010° 010° 7 kt METAR LYNI 241430Z 01007KT 320V060 CAVOK 33/15 Q1011 NOSIG
16:00
V
33 °C 10 km+ - 020° 020° 6 kt METAR LYNI 241400Z 02006KT 320V070 CAVOK 33/16 Q1011 NOSIG
15:30
V
33 °C 10 km+ - 020° 020° 9 kt METAR LYNI 241330Z 02009KT 330V060 CAVOK 33/16 Q1011 NOSIG
15:00
V
33 °C 10 km+ - 010° 010° 7 kt METAR LYNI 241300Z 01007KT 300V080 CAVOK 33/16 Q1011 NOSIG
14:30
V
33 °C 10 km+ - 320° 320° 9 kt METAR LYNI 241230Z 32009KT 280V010 CAVOK 33/17 Q1011 NOSIG
14:00
V
33 °C 10 km+ - 020° 020° 6 kt METAR LYNI 241200Z 02006KT 300V100 CAVOK 33/17 Q1012 NOSIG
13:30
V
32 °C 10 km+ - 310° 310° 7 kt METAR LYNI 241130Z 31007KT 250V360 CAVOK 32/19 Q1012 NOSIG
13:00
V
31 °C 10 km+ - 320° 320° 10 kt METAR LYNI 241100Z 32010KT 270V010 CAVOK 31/20 Q1012 NOSIG
12:30
V
30 °C 10 km+ - 300° 300° 10 kt METAR LYNI 241030Z 30010KT 270V340 CAVOK 30/20 Q1012 NOSIG
12:00
V
29 °C 10 km+ - 310° 310° 7 kt METAR LYNI 241000Z 31007KT 250V030 CAVOK 29/20 Q1012 NOSIG
11:30
V
29 °C 10 km+ - 320° 320° 7 kt METAR LYNI 240930Z 32007KT 270V350 CAVOK 29/20 Q1013 NOSIG
11:00
V
28 °C 10 km+ - 330° 330° 7 kt METAR LYNI 240900Z 33007KT 240V020 CAVOK 28/20 Q1013 NOSIG
10:30
V
27 °C 10 km+ - 320° 320° 7 kt METAR LYNI 240830Z 32007KT 260V350 9999 FEW027 27/20 Q1013 NOSIG
10:00
V
26 °C 10 km+ - 320° 320° 8 kt METAR LYNI 240800Z 32008KT 280V360 9999 FEW027 26/20 Q1013 NOSIG
09:30
V
25 °C 10 km+ - 330° 330° 7 kt METAR LYNI 240730Z 33007KT 280V360 9999 FEW027 25/20 Q1013 NOSIG
09:00
V
24 °C 10 km+ - 310° 310° 6 kt METAR LYNI 240700Z 31006KT 270V350 9999 FEW023 24/20 Q1013 NOSIG
08:30
V
23 °C 10 km+ - 280° 280° 4 kt METAR LYNI 240630Z 28004KT 240V340 9999 FEW020 23/20 Q1013 NOSIG
08:00
V
22 °C 10 km+ - 310° 310° 4 kt METAR LYNI 240600Z 31004KT 250V020 9999 SCT013 22/20 Q1013 NOSIG
07:30
V
21 °C 10 km+ - 290° 290° 3 kt METAR LYNI 240530Z 29003KT 210V010 9999 SCT010 21/19 Q1013 TEMPO TL0630 BKN013
07:00
V
20 °C 10 km+ - Var Var 2 kt METAR LYNI 240500Z VRB02KT 9999 FEW015 20/19 Q1013 NOSIG
06:30
V
19 °C 10 km+ - 280° 280° 3 kt METAR LYNI 240430Z 28003KT 250V320 9999 FEW010 19/18 Q1013 NOSIG
06:00
V
20 °C 10 km+ - Var Var 2 kt METAR LYNI 240400Z VRB02KT 9999 FEW010 20/18 Q1013 NOSIG
05:30
M
19 °C 10 km+ 1.300 ft 090° 090° 5 kt METAR LYNI 240330Z 09005KT 320V120 9999 BKN013 19/18 Q1013 TEMPO BKN007
05:00
M
19 °C 10 km+ 1.300 ft 080° 080° 6 kt METAR LYNI 240300Z 08006KT 9999 BKN013 19/18 Q1013 TEMPO BKN007
04:30
V
19 °C 10 km+ - Var Var 2 kt METAR LYNI 240230Z VRB02KT CAVOK 19/18 Q1012 NOSIG
04:00
V
17 °C 10 km+ - 180° 180° 3 kt METAR LYNI 240200Z 18003KT CAVOK 17/17 Q1012 NOSIG
03:30
V
19 °C 10 km+ - Var Var 1 kt METAR LYNI 240130Z VRB01KT CAVOK 19/17 Q1012 NOSIG
03:00
V
19 °C 10 km+ - 330° 330° 4 kt METAR LYNI 240100Z 33004KT CAVOK 19/18 Q1012 NOSIG
02:30
V
19 °C 10 km+ - 180° 180° 3 kt METAR LYNI 240030Z 18003KT 140V220 CAVOK 19/18 Q1012 NOSIG
02:00
V
19 °C 10 km+ - 180° 180° 4 kt METAR LYNI 240000Z 18004KT 150V220 CAVOK 19/18 Q1012 NOSIG
01:30
V
19 °C 10 km+ - 150° 150° 3 kt METAR LYNI 232330Z 15003KT 110V210 CAVOK 19/18 Q1011 NOSIG
01:00
V
20 °C 10 km+ - 320° 320° 7 kt METAR LYNI 232300Z 32007KT 290V350 CAVOK 20/18 Q1011 NOSIG
00:30
V
21 °C 10 km+ - Var Var 1 kt METAR LYNI 232230Z VRB01KT CAVOK 21/18 Q1012 NOSIG
00:00
V
21 °C 10 km+ - 330° 330° 2 kt METAR LYNI 232200Z 33002KT CAVOK 21/17 Q1012 NOSIG

23 juin 2024

Temps Code Temps Temp. Vue Base cloud Vent METAR/SPECI
23:30
V
21 °C 10 km+ - 060° 060° 3 kt METAR LYNI 232130Z 06003KT 020V080 CAVOK 21/18 Q1012 NOSIG
23:00
V
22 °C 10 km+ - 060° 060° 3 kt METAR LYNI 232100Z 06003KT 340V120 CAVOK 22/18 Q1012 NOSIG
22:30
V
22 °C 10 km+ - Var Var 2 kt METAR LYNI 232030Z VRB02KT 9999 FEW060 22/17 Q1012 NOSIG
22:00
V
21 °C 10 km+ - 070° 070° 8 kt METAR LYNI 232000Z 07008KT 030V100 9999 FEW060 21/19 Q1011 RETS NOSIG
21:30
V
21 °C 10 km+ - 090° 090° 13 kt METAR LYNI 231930Z 09013KT 9999 -TSRA FEW037CB SCT050 21/19 Q1011 BECMG NSW SCT050
21:00
V
21 °C 10 km+ - Var Var 2 kt METAR LYNI 231900Z VRB02KT 9999 -TSRA FEW037CB FEW040 SCT060 21/19 Q1012 NOSIG
20:30
V
23 °C 10 km+ - 120° 120° 4 kt METAR LYNI 231830Z 12004KT 060V220 9999 -TSRA FEW037CB FEW040 SCT050 23/19 Q1012 TEMPO 4000 TSRA SCT035CB BKN040
20:00
V
22 °C 10 km+ - Var Var 2 kt METAR LYNI 231800Z VRB02KT 9999 -TSRA FEW037CB FEW040 SCT060 22/19 Q1011 TEMPO VRB20KT 4000 TSRA SCT035CB BKN040
19:30
V
22 °C 10 km+ - 030° 030° 10 kt METAR LYNI 231730Z 03010KT 320V070 9999 -TSRA FEW037CB SCT060 22/17 Q1011 RERA TEMPO 25020KT 3000 TSRA SCT035CB BKN040
19:00
V
30 °C 10 km+ - 320° 320° 10 kt METAR LYNI 231700Z 32010KT 290V350 9999 -TSRA FEW037CB SCT040 30/20 Q1009 TEMPO 25020KT 3000 TSRA SCT035CB BKN040
18:30
V
31 °C 10 km+ 4.000 ft 320° 320° 5 kt METAR LYNI 231630Z 32005KT 290V350 9999 TS FEW037CB BKN040 31/18 Q1008 TEMPO 25020KT 3000 TSRA
18:00
V
32 °C 10 km+ - 350° 350° 4 kt METAR LYNI 231600Z 35004KT 320V060 9999 SCT040 32/18 Q1008 NOSIG
17:30
V
32 °C 10 km+ - 340° 340° 10 kt METAR LYNI 231530Z 34010KT 310V010 9999 SCT040 32/19 Q1007 NOSIG
17:00
V
32 °C 10 km+ - 340° 340° 9 kt METAR LYNI 231500Z 34009KT 9999 SCT040 32/19 Q1008 NOSIG
16:30
V
33 °C 10 km+ - 320° 320° 10 kt METAR LYNI 231430Z 32010KT 300V360 9999 SCT040 33/20 Q1008 NOSIG
16:00
V
34 °C 10 km+ - 320° 320° 11 kt METAR LYNI 231400Z 32011KT 260V350 9999 SCT040 34/20 Q1008 NOSIG
15:30
V
34 °C 10 km+ - 320° 320° 10 kt METAR LYNI 231330Z 32010KT 290V360 9999 FEW037TCU SCT040 34/20 Q1007 NOSIG
15:00
V
33 °C 10 km+ - 340° 340° 11 kt METAR LYNI 231300Z 34011KT 300V020 9999 SCT040 33/19 Q1008 NOSIG
14:30
V
34 °C 10 km+ - 320° 320° 11 kt METAR LYNI 231230Z 32011KT 290V360 9999 FEW040 34/19 Q1008 NOSIG
14:00
V
33 °C 10 km+ - 320° 320° 10 kt METAR LYNI 231200Z 32010KT 290V010 9999 FEW040 33/19 Q1008 NOSIG
13:30
V
33 °C 10 km+ - 320° 320° 10 kt METAR LYNI 231130Z 32010KT 290V360 9999 FEW040 33/19 Q1008 NOSIG
13:00
V
33 °C 10 km+ - 300° 300° 10 kt METAR LYNI 231100Z 30010KT 270V340 CAVOK 33/19 Q1009 NOSIG
12:30
V
32 °C 10 km+ - 320° 320° 10 kt METAR LYNI 231030Z 32010KT 270V020 CAVOK 32/19 Q1009 NOSIG
12:00
V
32 °C 10 km+ - 310° 310° 8 kt METAR LYNI 231000Z 31008KT 270V350 CAVOK 32/19 Q1009 NOSIG
11:30
V
31 °C 10 km+ - 310° 310° 9 kt METAR LYNI 230930Z 31009KT 280V010 CAVOK 31/19 Q1009 NOSIG
11:00
V
30 °C 10 km+ - 310° 310° 7 kt METAR LYNI 230900Z 31007KT 270V350 CAVOK 30/18 Q1009 NOSIG
10:30
V
30 °C 10 km+ - 330° 330° 7 kt METAR LYNI 230830Z 33007KT 290V030 CAVOK 30/17 Q1010 NOSIG
10:00
V
30 °C 10 km+ - 320° 320° 9 kt METAR LYNI 230800Z 32009KT 290V360 CAVOK 30/17 Q1010 NOSIG
09:30
V
30 °C 10 km+ - 350° 350° 4 - 15 kt METAR LYNI 230730Z 35004G15KT CAVOK 30/12 Q1010 NOSIG
09:00
V
29 °C 10 km+ - Var Var 2 kt METAR LYNI 230700Z VRB02KT CAVOK 29/12 Q1010 NOSIG
08:30
V
28 °C 10 km+ - 080° 080° 5 kt METAR LYNI 230630Z 08005KT 020V110 9999 FEW040 28/11 Q1010 NOSIG
08:00
V
27 °C 10 km+ - 070° 070° 8 kt METAR LYNI 230600Z 07008KT 030V100 9999 FEW040 27/10 Q1010 NOSIG
Signaler les modifications